JBQ weather

La Isabela International Airport
La Isabela, Distrito Nacional, Dominican Republic

Public forecast

Using degrees Celsius for public forecast. Weather courtesy of forecast.io.

Current aviation weather report (METAR) for La Isabela International Airport

Retrieved 2020/05/28 13:00 UTC (12 minutes ago):

MDJB 281300Z 00000KT 9999 FEW018CB SCT018 SCT080 30/24 Q1016 CB/NE/SE/S

Aviation forecast (TAF) for La Isabela International Airport

Forecast is more than 12 hours old.

Retrieved 2020-05-28 00:00 UTC (13 hours ago):

TAF MDJB 272200Z 2800/2900 18010KT 9999 SCT018 PROB30 2800/2806 8000 -TSRA FEW015CB SCT016 SCT070